Time;durP1;ratioP1;P1;durP2;ratioP2;P2;SDS_P1;SDS_P2;PMS_P1;PMS_P2;Temp;Humidity;BMP_temperature;BMP_pressure;BME280_temperature;BME280_humidity;BME280_pressure;Samples;Min_cycle;Max_cycle;Signal;HPM_P1;HPM_P2
2022/02/22 00:01:19;;;;;;;25.77;5.90;;;9.70;99.90;;;9.72;57.08;101150.56;4924692;28;99479;-61
2022/02/22 00:03:45;;;;;;;23.90;5.53;;;9.70;99.90;;;9.80;56.14;101149.47;4939534;28;96760;-63
2022/02/22 00:06:11;;;;;;;19.97;5.67;;;9.90;99.90;;;9.73;56.59;101157.56;4943120;28;96978;-60
2022/02/22 00:08:37;;;;;;;30.13;6.00;;;9.80;99.90;;;9.86;56.47;101171.31;4935148;28;98740;-60
2022/02/22 00:11:03;;;;;;;29.00;6.00;;;9.80;99.90;;;9.75;56.53;101167.16;4943099;28;101410;-58
2022/02/22 00:13:29;;;;;;;25.20;5.67;;;9.80;99.90;;;9.90;56.04;101159.78;4937498;28;103315;-64
2022/02/22 00:15:57;;;;;;;24.63;5.70;;;9.90;99.90;;;10.00;55.63;101171.84;4939426;28;97184;-58
2022/02/22 00:18:23;;;;;;;23.83;5.80;;;10.00;99.90;;;10.12;55.03;101166.22;4935292;28;97639;-57
2022/02/22 00:20:49;;;;;;;28.67;6.10;;;10.10;99.90;;;9.83;55.64;101166.94;4927046;28;98335;-63
2022/02/22 00:23:15;;;;;;;23.87;5.27;;;9.90;99.90;;;9.81;56.09;101171.41;4931052;28;97215;-60
2022/02/22 00:25:41;;;;;;;24.13;6.10;;;9.90;99.90;;;9.95;55.98;101173.69;4943330;28;117692;-61
2022/02/22 00:28:06;;;;;;;21.07;5.37;;;9.90;99.90;;;9.78;55.88;101182.00;4927164;28;98079;-62
2022/02/22 00:30:33;;;;;;;28.50;6.27;;;9.80;99.90;;;9.60;56.21;101188.59;4921620;28;98269;-58
2022/02/22 00:33:00;;;;;;;26.27;6.30;;;9.70;99.90;;;9.91;55.66;101187.84;4941045;28;97034;-61
2022/02/22 00:35:27;;;;;;;30.57;5.90;;;9.90;99.90;;;9.82;55.54;101199.47;4939968;28;97063;-60
2022/02/22 00:37:52;;;;;;;29.20;6.13;;;9.90;99.90;;;9.67;55.89;101195.44;4927221;28;99162;-60
2022/02/22 00:40:19;;;;;;;26.23;5.50;;;9.80;99.90;;;9.53;56.11;101208.06;4937256;28;125322;-65
2022/02/22 00:42:44;;;;;;;27.60;6.43;;;9.70;99.90;;;9.75;56.63;101209.31;4938932;28;116712;-63
2022/02/22 00:45:11;;;;;;;28.73;6.60;;;9.70;99.90;;;9.98;55.43;101215.78;4938976;28;116958;-63
2022/02/22 00:47:38;;;;;;;28.73;6.33;;;9.90;99.90;;;9.81;55.73;101226.72;4933372;28;98779;-64
2022/02/22 00:50:06;;;;;;;21.20;5.10;;;9.80;99.90;;;10.09;55.73;101226.94;4938378;28;98279;-61
2022/02/22 00:52:33;;;;;;;22.40;5.33;;;9.90;99.90;;;10.10;55.27;101231.31;4932317;28;97512;-60
2022/02/22 00:55:00;;;;;;;26.03;5.87;;;10.00;99.90;;;10.29;55.28;101237.91;4936849;28;97583;-63
2022/02/22 00:57:26;;;;;;;26.53;5.33;;;10.20;99.90;;;10.36;54.89;101233.31;4939993;28;97447;-59
2022/02/22 00:59:52;;;;;;;26.10;6.40;;;10.30;99.90;;;10.35;54.23;101240.38;4938354;28;114916;-59
2022/02/22 01:02:18;;;;;;;25.23;5.53;;;10.30;99.90;;;10.31;54.12;101249.28;4928389;28;98828;-60
2022/02/22 01:04:44;;;;;;;22.70;6.13;;;10.30;99.90;;;10.43;54.00;101250.75;4932220;28;97492;-61
2022/02/22 01:07:16;;;;;;;29.23;6.63;;;10.40;99.90;;;10.53;53.62;101246.06;4933477;28;97674;-61
2022/02/22 01:09:46;;;;;;;23.47;4.93;;;10.50;99.90;;;10.57;53.38;101248.63;4924995;28;101044;-61
2022/02/22 01:12:14;;;;;;;30.63;6.30;;;10.60;99.90;;;10.54;53.57;101261.00;4943202;28;97451;-60
2022/02/22 01:14:40;;;;;;;21.23;6.33;;;10.60;99.90;;;10.47;53.67;101254.16;4953176;28;97251;-61
2022/02/22 01:17:07;;;;;;;20.90;5.73;;;10.50;99.90;;;10.47;54.16;101256.78;4957174;28;97459;-61
2022/02/22 01:19:34;;;;;;;26.00;5.73;;;10.50;99.90;;;10.53;54.41;101256.63;4955894;28;126436;-61
2022/02/22 01:22:00;;;;;;;22.30;5.50;;;10.50;99.90;;;10.44;54.00;101252.47;4951275;28;98384;-61
2022/02/22 01:24:26;;;;;;;23.43;5.83;;;10.40;99.90;;;10.32;54.45;101245.72;4940619;28;96872;-60
2022/02/22 01:26:51;;;;;;;24.60;5.97;;;10.30;99.90;;;10.49;53.81;101260.25;4954949;28;117804;-59
2022/02/22 01:29:18;;;;;;;25.60;6.13;;;10.40;99.90;;;10.45;53.33;101255.97;4960814;28;96944;-61
2022/02/22 01:31:45;;;;;;;23.63;5.33;;;10.40;99.90;;;10.59;53.27;101251.22;4941843;28;98231;-61
2022/02/22 01:34:11;;;;;;;22.37;5.97;;;10.40;99.90;;;10.64;53.67;101244.88;4964286;28;96966;-62
2022/02/22 01:36:36;;;;;;;23.43;6.00;;;10.50;99.90;;;10.73;53.16;101249.06;4942589;28;97614;-61
2022/02/22 01:39:04;;;;;;;24.50;5.93;;;10.60;99.90;;;10.81;52.62;101257.63;4957197;28;98456;-61
2022/02/22 01:41:32;;;;;;;28.30;6.03;;;10.70;99.90;;;10.69;52.35;101256.19;4959044;28;97288;-61
2022/02/22 01:43:59;;;;;;;24.13;5.90;;;10.60;99.90;;;10.85;52.73;101264.59;4960929;28;97287;-61
2022/02/22 01:46:25;;;;;;;26.23;6.07;;;10.60;99.90;;;11.17;52.33;101268.09;4960410;28;98227;-60
2022/02/22 01:48:51;;;;;;;32.13;6.40;;;10.90;99.90;;;10.94;51.87;101259.03;4958018;28;97044;-61
2022/02/22 01:51:17;;;;;;;27.13;5.97;;;10.80;99.90;;;10.85;51.97;101268.97;4955095;28;96957;-62
2022/02/22 01:53:44;;;;;;;29.17;6.00;;;10.70;99.90;;;10.80;52.22;101266.44;4955882;28;97257;-61
2022/02/22 01:56:12;;;;;;;23.03;6.10;;;10.70;99.90;;;10.83;52.74;101266.38;4937486;28;99385;-62
2022/02/22 01:58:39;;;;;;;26.93;5.90;;;10.60;99.90;;;10.82;52.33;101280.47;4946767;28;100464;-59
2022/02/22 02:01:05;;;;;;;26.23;5.80;;;10.70;99.90;;;10.72;52.96;101289.56;4939803;28;97388;-62
2022/02/22 02:03:31;;;;;;;25.70;5.77;;;10.60;99.90;;;10.77;52.41;101290.28;4957304;28;97069;-60
2022/02/22 02:05:57;;;;;;;27.83;5.83;;;10.70;99.90;;;11.02;52.48;101288.75;4939449;28;97654;-61
2022/02/22 02:08:23;;;;;;;20.20;5.17;;;10.90;99.90;;;10.91;52.43;101301.34;4957318;28;96901;-62
2022/02/22 02:10:50;;;;;;;25.70;5.20;;;10.80;99.90;;;10.82;52.05;101306.88;4955926;28;97408;-60
2022/02/22 02:13:16;;;;;;;28.53;6.37;;;10.80;99.90;;;10.74;52.75;101306.22;4954560;28;98049;-64
2022/02/22 02:15:42;;;;;;;23.30;6.37;;;10.70;99.90;;;11.01;52.43;101312.53;4938360;28;120658;-60
2022/02/22 02:18:08;;;;;;;25.77;6.17;;;10.80;99.90;;;10.92;52.29;101303.09;4963130;28;100342;-61
2022/02/22 02:20:34;;;;;;;29.07;6.07;;;10.80;99.90;;;10.81;52.86;101315.69;4924181;28;97047;-60
2022/02/22 02:23:01;;;;;;;20.87;6.50;;;10.70;99.90;;;10.82;52.49;101319.19;4954014;28;97215;-60
2022/02/22 02:25:27;;;;;;;24.27;5.47;;;10.80;99.90;;;10.70;52.79;101312.44;4950664;28;96977;-60
2022/02/22 02:27:53;;;;;;;31.43;5.17;;;10.70;99.90;;;10.92;52.77;101311.00;4953223;28;98399;-60
2022/02/22 02:30:19;;;;;;;24.03;5.83;;;10.70;99.90;;;11.09;51.98;101309.69;4946707;28;97454;-60
2022/02/22 02:32:45;;;;;;;18.57;5.10;;;10.90;99.90;;;11.09;52.83;101314.97;4953427;28;100248;-60
2022/02/22 02:35:11;;;;;;;30.23;5.87;;;10.90;99.90;;;11.08;51.82;101323.78;4961220;28;98748;-61
2022/02/22 02:37:38;;;;;;;27.33;5.87;;;11.10;99.90;;;11.06;52.95;101320.31;4954430;28;119306;-60
2022/02/22 02:40:07;;;;;;;28.73;6.50;;;10.90;99.90;;;11.12;52.66;101309.59;4961489;28;102602;-60
2022/02/22 02:42:33;;;;;;;20.50;5.33;;;10.90;99.90;;;11.12;51.98;101325.44;4937199;28;97503;-61
2022/02/22 02:44:59;;;;;;;26.13;6.30;;;11.10;99.90;;;11.14;51.84;101335.06;4951294;28;100282;-60
2022/02/22 02:47:25;;;;;;;21.47;5.33;;;11.00;99.90;;;11.27;52.27;101325.88;4951791;28;97023;-60
2022/02/22 02:49:51;;;;;;;21.57;5.90;;;11.10;99.90;;;11.12;52.50;101325.44;4945673;28;96853;-61
2022/02/22 02:52:21;;;;;;;32.20;6.70;;;10.90;99.90;;;11.15;51.77;101320.09;4957099;28;108257;-61
2022/02/22 02:54:47;;;;;;;26.40;6.57;;;11.00;99.90;;;10.93;52.48;101325.06;4967046;28;106260;-59
2022/02/22 02:57:14;;;;;;;31.13;6.20;;;10.80;99.90;;;10.85;52.82;101333.19;4956583;28;97360;-61
2022/02/22 02:59:40;;;;;;;15.83;4.60;;;10.70;99.90;;;10.71;53.59;101327.41;4946797;28;98154;-61
2022/02/22 03:02:06;;;;;;;28.23;6.37;;;10.60;99.90;;;10.75;53.42;101315.88;4964665;28;99072;-60
2022/02/22 03:04:31;;;;;;;30.13;6.30;;;10.70;99.90;;;11.10;53.07;101324.59;4955837;28;121125;-61
2022/02/22 03:06:57;;;;;;;29.33;5.77;;;10.80;99.90;;;10.94;52.81;101332.94;4944083;28;126374;-61
2022/02/22 03:09:23;;;;;;;25.13;5.43;;;10.80;99.90;;;11.01;53.46;101342.44;4939159;28;112341;-60
2022/02/22 03:11:50;;;;;;;27.70;6.03;;;10.80;99.90;;;11.31;51.80;101342.53;4966914;28;101454;-60
2022/02/22 03:14:16;;;;;;;19.30;4.83;;;11.10;99.90;;;11.48;52.12;101339.41;4919768;28;100770;-63
2022/02/22 03:16:42;;;;;;;24.07;5.70;;;11.30;99.90;;;11.50;52.03;101342.84;4957976;28;106788;-61
2022/02/22 03:19:08;;;;;;;24.97;5.80;;;11.30;99.90;;;11.44;52.02;101354.47;4956547;28;97302;-59
2022/02/22 03:21:34;;;;;;;26.60;6.33;;;11.30;99.90;;;11.43;51.75;101355.38;4945219;28;104067;-61
2022/02/22 03:24:01;;;;;;;21.53;5.37;;;11.30;99.90;;;11.07;52.79;101359.03;4962795;28;109207;-61
2022/02/22 03:26:27;;;;;;;26.73;6.57;;;11.00;99.90;;;11.21;52.95;101348.94;4958713;28;98012;-58
2022/02/22 03:28:55;;;;;;;35.50;7.13;;;10.90;99.90;;;11.38;52.22;101354.63;4961728;28;117875;-60
2022/02/22 03:31:22;;;;;;;27.43;5.67;;;11.20;99.90;;;11.22;52.39;101369.16;4957191;28;97349;-60
2022/02/22 03:33:52;;;;;;;21.43;4.77;;;11.10;99.90;;;11.29;52.32;101368.09;4964758;28;97534;-60
2022/02/22 03:36:19;;;;;;;25.07;6.03;;;11.10;99.90;;;11.42;52.07;101361.56;4957890;28;97195;-60
2022/02/22 03:38:46;;;;;;;24.93;6.63;;;11.20;99.90;;;11.46;51.56;101357.94;4958017;28;97114;-60
2022/02/22 03:41:12;;;;;;;23.77;6.30;;;11.20;99.90;;;11.62;51.68;101369.81;4963056;28;97032;-60
2022/02/22 03:43:37;;;;;;;27.80;5.83;;;11.30;99.90;;;11.63;51.79;101371.53;4963943;28;126160;-61
2022/02/22 03:46:04;;;;;;;31.13;6.50;;;11.30;99.90;;;11.54;51.50;101382.34;4962769;28;97535;-62
2022/02/22 03:48:30;;;;;;;22.50;5.37;;;11.30;99.90;;;11.48;52.03;101371.97;4956333;28;98616;-60
2022/02/22 03:50:56;;;;;;;33.13;6.60;;;11.20;99.90;;;11.33;52.05;101388.25;4967428;28;117054;-61
2022/02/22 03:53:21;;;;;;;19.37;4.73;;;11.10;99.90;;;11.32;52.49;101386.50;4956005;28;97221;-61
2022/02/22 03:55:48;;;;;;;27.00;6.07;;;11.10;99.90;;;11.43;51.88;101383.56;4953343;28;97010;-61
2022/02/22 03:58:15;;;;;;;22.43;5.63;;;11.20;99.90;;;11.49;52.06;101383.41;4956874;28;96944;-65
2022/02/22 04:00:41;;;;;;;30.47;7.17;;;11.30;99.90;;;11.60;50.98;101378.69;4960272;28;97717;-61
2022/02/22 04:03:10;;;;;;;25.33;6.17;;;11.40;99.90;;;11.73;51.40;101381.84;4961058;28;101969;-61
2022/02/22 04:05:36;;;;;;;27.43;6.70;;;11.50;99.90;;;11.82;51.01;101381.59;4927196;28;97278;-61
2022/02/22 04:08:02;;;;;;;27.23;6.23;;;11.60;99.90;;;11.99;50.94;101374.03;4963184;28;96996;-61
2022/02/22 04:10:28;;;;;;;25.33;5.33;;;11.80;99.90;;;12.13;50.38;101386.81;4960318;28;103366;-62
2022/02/22 04:12:55;;;;;;;30.57;6.07;;;12.10;99.90;;;12.11;50.05;101400.09;4961585;28;97307;-62
2022/02/22 04:15:21;;;;;;;23.13;6.33;;;12.10;99.30;;;12.20;50.34;101399.84;4961969;28;96978;-60
2022/02/22 04:17:47;;;;;;;31.07;6.50;;;12.10;99.80;;;12.37;49.34;101401.94;4956215;28;97096;-62
2022/02/22 04:20:13;;;;;;;24.43;6.90;;;12.20;99.40;;;12.55;49.63;101415.50;4963129;28;97184;-61
2022/02/22 04:22:40;;;;;;;32.73;6.00;;;12.40;99.70;;;12.74;49.36;101404.31;4960473;28;102592;-61
2022/02/22 04:25:07;;;;;;;35.10;6.87;;;12.70;99.20;;;12.78;48.65;101413.00;4959404;28;97624;-61
2022/02/22 04:27:33;;;;;;;24.50;5.30;;;12.70;98.30;;;12.86;48.55;101420.69;4958778;28;96948;-62
2022/02/22 04:29:59;;;;;;;15.27;4.80;;;12.80;98.90;;;13.06;48.47;101408.50;4958597;28;97045;-62
2022/02/22 04:32:25;;;;;;;26.97;5.60;;;13.10;98.40;;;13.28;47.63;101419.25;4952382;28;123254;-62
2022/02/22 04:34:51;;;;;;;17.90;4.50;;;13.40;97.80;;;13.37;47.37;101424.25;4960139;28;97631;-62
2022/02/22 04:37:18;;;;;;;16.13;4.30;;;13.50;97.60;;;13.40;47.22;101429.44;4956510;28;115873;-62
2022/02/22 04:39:46;;;;;;;28.87;6.53;;;13.50;97.50;;;13.47;47.23;101430.09;4959427;28;96953;-61
2022/02/22 04:42:12;;;;;;;19.13;5.47;;;13.60;97.20;;;13.65;47.00;101442.69;4961512;28;98652;-61
2022/02/22 04:44:39;;;;;;;20.83;4.97;;;13.80;97.20;;;13.81;46.43;101434.19;4962001;28;98854;-62
2022/02/22 04:47:09;;;;;;;12.47;3.90;;;14.00;96.80;;;13.87;46.32;101418.88;4944462;28;98870;-60
2022/02/22 04:49:35;;;;;;;20.33;5.57;;;14.10;96.60;;;13.77;45.99;101428.13;4953132;28;99945;-62
2022/02/22 04:52:02;;;;;;;23.53;6.60;;;14.00;96.20;;;13.90;45.62;101418.81;4963138;28;122337;-61
2022/02/22 04:54:29;;;;;;;25.80;6.10;;;14.10;95.60;;;13.85;45.08;101420.75;4951451;28;97765;-61
2022/02/22 04:56:55;;;;;;;20.50;5.87;;;13.90;95.30;;;13.97;46.18;101436.19;4962050;28;97442;-62
2022/02/22 04:59:21;;;;;;;25.03;6.30;;;14.10;96.50;;;14.01;45.80;101431.63;4961784;28;97442;-62
2022/02/22 05:01:48;;;;;;;25.97;5.90;;;14.20;96.30;;;14.05;45.50;101430.63;4943859;28;98445;-62
2022/02/22 05:04:14;;;;;;;32.97;6.53;;;14.20;95.10;;;14.00;45.64;101446.69;4930272;28;118694;-67
2022/02/22 05:06:40;;;;;;;22.50;5.60;;;13.90;96.40;;;14.05;45.63;101448.31;4954736;28;96765;-62
2022/02/22 05:09:05;;;;;;;19.00;4.70;;;14.00;96.00;;;13.98;45.92;101442.38;4964419;28;98187;-62
2022/02/22 05:11:34;;;;;;;18.43;4.70;;;14.00;96.60;;;13.86;46.15;101443.69;4953396;28;97374;-61
2022/02/22 05:14:02;;;;;;;15.70;4.70;;;13.90;96.30;;;13.83;46.41;101435.84;4956762;28;99200;-62
2022/02/22 05:16:35;;;;;;;20.60;5.33;;;13.90;96.50;;;13.92;46.03;101429.34;4938656;28;96823;-62
2022/02/22 05:19:03;;;;;;;20.70;5.00;;;14.00;96.50;;;13.94;45.95;101425.72;4953792;28;97393;-62
2022/02/22 05:21:29;;;;;;;29.00;6.87;;;14.00;96.50;;;13.96;45.64;101437.13;4952582;28;99216;-61
2022/02/22 05:23:55;;;;;;;19.63;5.50;;;14.00;95.40;;;13.99;45.85;101433.50;4956384;28;99074;-62
2022/02/22 05:26:21;;;;;;;18.03;5.60;;;14.00;96.50;;;14.05;45.89;101437.72;4954177;28;96764;-62
2022/02/22 05:28:47;;;;;;;20.00;5.83;;;14.10;96.30;;;14.14;46.00;101432.03;4963615;28;103273;-64
2022/02/22 05:31:16;;;;;;;27.27;7.03;;;14.20;96.00;;;14.18;45.56;101439.00;4954915;28;97350;-63
2022/02/22 05:33:43;;;;;;;21.83;4.93;;;14.20;95.10;;;14.19;45.79;101435.41;4951655;28;99839;-64
2022/02/22 05:36:09;;;;;;;26.27;6.57;;;14.10;96.30;;;14.13;43.78;101441.78;4938271;28;97080;-63
2022/02/22 05:38:35;;;;;;;17.73;4.70;;;14.10;94.80;;;14.26;45.57;101437.75;4954860;28;96896;-61
2022/02/22 05:41:01;;;;;;;23.60;5.60;;;14.30;96.20;;;14.27;45.34;101441.25;4961701;28;97609;-64
2022/02/22 05:43:28;;;;;;;21.30;5.90;;;14.30;95.90;;;14.34;45.33;101442.78;4956974;28;98684;-63
2022/02/22 05:45:57;;;;;;;21.37;5.97;;;14.40;95.60;;;14.30;45.23;101459.72;4942470;28;110947;-62
2022/02/22 05:48:22;;;;;;;25.53;6.63;;;14.30;95.30;;;14.29;45.16;101458.00;4953641;28;97235;-63
2022/02/22 05:50:49;;;;;;;20.67;5.37;;;14.30;94.90;;;14.16;45.48;101451.41;4959325;28;97063;-63
2022/02/22 05:53:14;;;;;;;17.40;5.13;;;14.10;95.90;;;14.20;45.42;101458.38;4965413;28;97492;-68
2022/02/22 05:55:41;;;;;;;15.80;5.37;;;14.10;96.10;;;14.20;45.70;101463.66;4961206;28;96854;-62
2022/02/22 05:58:06;;;;;;;18.77;4.97;;;14.10;95.90;;;14.17;45.81;101466.41;4943606;28;96742;-61
2022/02/22 06:00:32;;;;;;;19.53;5.60;;;14.10;96.20;;;14.15;45.54;101462.97;4938822;28;99886;-64
2022/02/22 06:02:58;;;;;;;14.27;4.07;;;14.20;95.90;;;14.12;45.69;101457.78;4973862;28;99352;-63
2022/02/22 06:05:24;;;;;;;22.93;5.83;;;14.10;95.80;;;14.16;45.82;101473.50;4930589;28;97665;-64
2022/02/22 06:07:49;;;;;;;22.90;5.80;;;14.10;95.80;;;14.21;45.49;101478.66;4960104;28;114488;-64
2022/02/22 06:10:16;;;;;;;18.27;4.47;;;14.20;96.10;;;14.23;45.69;101485.63;4939945;28;99308;-67
2022/02/22 06:12:45;;;;;;;23.43;6.33;;;14.20;95.80;;;14.30;45.24;101491.56;4944001;28;99737;-63
2022/02/22 06:15:14;;;;;;;15.07;3.70;;;14.30;95.70;;;14.31;45.47;101498.59;4946000;28;96927;-63
2022/02/22 06:17:44;;;;;;;19.23;4.93;;;14.30;95.40;;;14.31;45.13;101498.59;4924454;28;97422;-62
2022/02/22 06:20:12;;;;;;;17.90;5.33;;;14.40;95.50;;;14.38;45.28;101505.44;4960161;28;97435;-59
2022/02/22 06:22:39;;;;;;;13.47;4.37;;;14.50;95.40;;;14.43;45.29;101502.59;4956198;28;98315;-63
2022/02/22 06:25:08;;;;;;;15.57;4.40;;;14.50;95.40;;;14.43;44.88;101502.59;4965131;28;98069;-64
2022/02/22 06:27:49;;;;;;;17.47;4.70;;;14.60;95.20;;;14.45;45.25;101506.06;4954224;28;97395;-62
2022/02/22 06:30:16;;;;;;;12.47;3.70;;;14.50;95.30;;;14.28;45.49;101514.66;4948354;28;102339;-62
2022/02/22 06:32:42;;;;;;;21.90;5.33;;;14.30;95.60;;;14.33;45.40;101507.41;4958232;28;97316;-58
2022/02/22 06:35:08;;;;;;;17.63;5.27;;;14.30;95.70;;;14.42;45.21;101511.47;4959495;28;97169;-56
2022/02/22 06:37:35;;;;;;;21.63;5.70;;;14.50;95.50;;;14.49;45.11;101513.03;4943204;28;101544;-61
2022/02/22 06:40:01;;;;;;;16.73;4.70;;;14.60;95.30;;;14.60;44.73;101532.03;4964271;28;97061;-60
2022/02/22 06:42:27;;;;;;;16.33;4.83;;;14.70;95.00;;;14.63;44.49;101531.94;4950647;28;97512;-60
2022/02/22 06:44:54;;;;;;;20.63;5.47;;;14.80;94.70;;;14.59;44.71;101528.50;4948977;28;98460;-61
2022/02/22 06:47:20;;;;;;;21.43;5.17;;;14.80;94.70;;;14.67;44.45;101532.69;4930341;28;96869;-61
2022/02/22 06:49:46;;;;;;;19.67;5.23;;;14.90;94.30;;;14.72;44.33;101536.00;4936357;28;126753;-57
2022/02/22 06:52:11;;;;;;;16.63;4.77;;;14.90;94.80;;;14.73;44.40;101543.91;4935432;28;108042;-61
2022/02/22 06:54:38;;;;;;;21.97;5.60;;;14.90;94.70;;;14.75;44.42;101541.19;4929308;28;111920;-61
2022/02/22 06:57:04;;;;;;;15.60;4.27;;;14.90;94.70;;;14.76;44.55;101545.63;4936799;28;97540;-61
2022/02/22 06:59:30;;;;;;;13.93;4.70;;;14.90;94.80;;;14.59;43.12;101560.38;4945551;28;98805;-59
2022/02/22 07:01:55;;;;;;;11.20;3.60;;;14.60;93.10;;;14.53;44.87;101550.00;4959857;28;118059;-60
2022/02/22 07:04:21;;;;;;;19.93;5.17;;;14.30;95.70;;;14.52;44.85;101545.63;4935484;28;96851;-60
2022/02/22 07:06:47;;;;;;;19.47;5.90;;;14.40;94.50;;;14.55;44.96;101545.50;4939467;28;97621;-59
2022/02/22 07:09:13;;;;;;;12.27;4.10;;;14.50;94.90;;;14.58;44.86;101560.44;4955409;28;114063;-61
2022/02/22 07:11:39;;;;;;;13.37;4.83;;;14.60;95.20;;;14.69;44.63;101562.69;4936385;28;99312;-61
2022/02/22 07:14:04;;;;;;;24.63;5.07;;;14.70;95.00;;;14.71;44.17;101563.50;4960771;28;97590;-61
2022/02/22 07:16:30;;;;;;;19.87;5.67;;;14.80;93.70;;;14.73;44.50;101556.31;4952439;28;117411;-61
2022/02/22 07:18:56;;;;;;;17.03;4.77;;;14.80;94.80;;;14.75;44.34;101562.44;4959474;28;97303;-61
2022/02/22 07:21:23;;;;;;;19.27;4.80;;;14.90;94.00;;;14.56;44.15;101573.78;4953432;28;98486;-61
2022/02/22 07:23:49;;;;;;;21.80;5.67;;;14.40;93.90;;;14.26;45.17;101565.13;4958929;28;104046;-61
2022/02/22 07:26:16;;;;;;;15.37;4.57;;;13.90;95.30;;;14.13;45.80;101562.97;4954357;28;102369;-64
2022/02/22 07:28:43;;;;;;;17.23;4.70;;;13.60;97.00;;;14.18;45.98;101567.22;4956588;28;101499;-61
2022/02/22 07:31:11;;;;;;;15.97;4.50;;;13.80;96.70;;;14.22;45.77;101568.81;4953806;28;97259;-61
2022/02/22 07:33:38;;;;;;;11.80;4.17;;;14.00;96.30;;;14.24;45.34;101555.50;4937791;28;97210;-60
2022/02/22 07:36:07;;;;;;;17.93;4.53;;;14.10;96.30;;;14.36;45.53;101576.28;4959108;28;97431;-61
2022/02/22 07:38:33;;;;;;;17.90;5.43;;;14.30;95.70;;;14.47;45.23;101567.97;4953031;28;97621;-61
2022/02/22 07:41:00;;;;;;;14.03;4.57;;;14.50;95.60;;;14.54;45.05;101569.44;4960172;28;98233;-61
2022/02/22 07:43:26;;;;;;;17.83;5.30;;;14.60;93.90;;;14.35;44.62;101574.56;4953583;28;97043;-60
2022/02/22 07:45:52;;;;;;;20.07;6.00;;;14.10;94.90;;;14.05;45.83;101571.22;4957655;28;118049;-60
2022/02/22 07:48:17;;;;;;;13.63;4.60;;;13.60;96.30;;;13.89;46.55;101570.91;4955405;28;97548;-61
2022/02/22 07:50:43;;;;;;;13.73;3.80;;;13.20;97.20;;;13.51;47.28;101573.97;4959854;28;97118;-61
2022/02/22 07:53:09;;;;;;;20.47;6.53;;;12.70;98.10;;;13.32;47.30;101579.91;4957506;28;96762;-61
2022/02/22 07:55:37;;;;;;;20.17;6.03;;;12.50;98.50;;;13.20;47.87;101574.97;4928006;28;114867;-61
2022/02/22 07:58:03;;;;;;;17.17;4.83;;;12.30;99.00;;;13.07;48.70;101584.19;4936912;28;98414;-61
2022/02/22 08:00:29;;;;;;;19.17;5.70;;;12.20;99.20;;;12.91;49.02;101581.16;4933808;28;114566;-61
2022/02/22 08:02:55;;;;;;;19.43;4.83;;;12.10;99.60;;;12.88;48.99;101580.41;4937321;28;99166;-62
2022/02/22 08:05:23;;;;;;;21.57;5.77;;;12.00;99.80;;;12.74;48.81;101586.97;4938886;28;99285;-62
2022/02/22 08:07:49;;;;;;;16.87;4.03;;;12.00;99.80;;;12.69;49.57;101588.00;4925296;28;97651;-64
2022/02/22 08:10:15;;;;;;;15.53;4.60;;;11.90;99.90;;;12.47;49.58;101585.13;4915617;28;126547;-63
2022/02/22 08:12:40;;;;;;;7.83;3.10;;;11.70;99.90;;;12.49;50.35;101586.81;4922848;28;100260;-64
2022/02/22 08:15:09;;;;;;;16.43;4.50;;;11.70;99.90;;;12.51;50.42;101594.72;4919678;28;102373;-59
2022/02/22 08:17:40;;;;;;;24.37;5.57;;;11.80;99.90;;;12.61;50.08;101593.53;4917907;28;99275;-58
2022/02/22 08:20:07;;;;;;;19.73;6.17;;;11.90;99.90;;;12.39;49.68;101587.97;4914691;28;104473;-64
2022/02/22 08:22:33;;;;;;;13.00;4.03;;;11.70;99.90;;;12.27;50.87;101580.38;4913392;28;99001;-60
2022/02/22 08:25:00;;;;;;;23.20;4.90;;;11.50;99.90;;;12.31;51.04;101578.53;4938974;28;98239;-64
2022/02/22 08:27:26;;;;;;;15.93;4.50;;;11.50;99.90;;;12.31;50.60;101575.91;4917697;28;98503;-62
2022/02/22 08:29:52;;;;;;;23.10;5.73;;;11.60;99.90;;;12.18;50.52;101570.94;4920829;28;98035;-61
2022/02/22 08:32:18;;;;;;;20.80;4.83;;;11.50;99.90;;;12.10;50.90;101567.63;4914805;28;98056;-63
2022/02/22 08:34:45;;;;;;;15.63;4.93;;;11.50;99.90;;;12.10;51.33;101557.06;4916696;28;98094;-57
2022/02/22 08:37:11;;;;;;;21.97;4.93;;;11.50;99.90;;;12.11;51.24;101553.50;4921213;28;100701;-61
2022/02/22 08:39:37;;;;;;;13.90;3.90;;;11.60;99.90;;;12.39;50.81;101547.41;4914440;28;97661;-64
2022/02/22 08:42:06;;;;;;;21.30;5.33;;;11.90;99.90;;;12.40;49.77;101546.50;4914811;28;97144;-59
2022/02/22 08:44:32;;;;;;;20.47;4.63;;;12.10;99.80;;;12.60;50.38;101540.66;4900241;28;98816;-62
2022/02/22 08:46:58;;;;;;;26.27;5.33;;;12.20;99.90;;;12.44;50.59;101542.84;4929266;28;97222;-60
2022/02/22 08:49:24;;;;;;;18.23;4.27;;;12.00;99.90;;;12.58;50.54;101540.66;4915877;28;97982;-62
2022/02/22 08:51:50;;;;;;;14.77;3.90;;;12.10;99.90;;;12.82;49.90;101537.28;4922501;28;98644;-62
2022/02/22 08:54:17;;;;;;;17.17;4.63;;;12.50;99.90;;;13.08;49.38;101538.25;4911353;28;97980;-62
2022/02/22 08:56:43;;;;;;;15.93;4.83;;;12.90;99.00;;;13.06;47.58;101538.31;4921436;28;101005;-61
2022/02/22 08:59:09;;;;;;;15.60;4.50;;;13.00;98.20;;;12.98;48.66;101542.09;4915034;28;121112;-56
2022/02/22 09:01:34;;;;;;;12.77;4.27;;;12.90;98.70;;;12.97;48.66;101541.22;4911492;28;98202;-61
2022/02/22 09:04:01;;;;;;;18.77;5.20;;;12.80;99.00;;;12.86;49.25;101531.88;4900254;28;110781;-56
2022/02/22 09:06:27;;;;;;;12.57;4.10;;;12.60;99.30;;;12.79;49.89;101534.75;4915847;28;99453;-59
2022/02/22 09:08:54;;;;;;;15.80;4.43;;;12.40;99.90;;;12.98;49.12;101527.06;4907734;28;128316;-57
2022/02/22 09:11:20;;;;;;;15.33;5.60;;;12.70;99.10;;;12.99;49.02;101533.25;4910851;28;99457;-56
2022/02/22 09:13:46;;;;;;;16.53;5.73;;;12.70;99.40;;;12.93;49.56;101538.75;4922562;28;97942;-59
2022/02/22 09:16:14;;;;;;;15.43;5.70;;;12.60;99.40;;;13.23;47.79;101532.50;4916364;28;97652;-61
2022/02/22 09:18:41;;;;;;;19.07;6.53;;;13.10;98.20;;;13.10;48.64;101531.13;4888406;28;101236;-60
2022/02/22 09:21:08;;;;;;;16.27;4.73;;;13.00;98.60;;;13.26;48.81;101536.81;4920616;28;97436;-62
2022/02/22 09:23:33;;;;;;;14.10;5.30;;;13.00;99.00;;;13.15;49.21;101529.16;4904529;28;96964;-60
2022/02/22 09:26:01;;;;;;;14.83;4.63;;;13.00;99.10;;;13.05;49.28;101527.75;4917953;28;98705;-62
2022/02/22 09:28:27;;;;;;;13.23;5.43;;;12.80;99.10;;;12.96;49.13;101528.03;4912883;28;98796;-61
2022/02/22 09:30:53;;;;;;;25.07;7.17;;;12.70;99.30;;;12.72;49.58;101525.22;4921770;28;97593;-60
2022/02/22 09:33:18;;;;;;;16.80;5.57;;;12.50;99.60;;;12.88;49.72;101527.44;4911716;28;112816;-63
2022/02/22 09:35:46;;;;;;;14.23;4.90;;;12.50;99.90;;;13.20;49.20;101516.69;4918783;28;106679;-59
2022/02/22 09:38:12;;;;;;;11.87;5.10;;;13.00;99.00;;;13.15;49.04;101504.47;4919874;28;97481;-60
2022/02/22 09:40:39;;;;;;;12.83;5.03;;;13.00;99.00;;;13.10;49.28;101504.63;4912283;28;96974;-63
2022/02/22 09:43:05;;;;;;;19.47;6.20;;;12.90;99.10;;;12.71;49.49;101507.63;4902834;28;99132;-59
2022/02/22 09:45:31;;;;;;;13.77;5.80;;;12.60;99.20;;;12.86;49.43;101493.03;4912215;28;120466;-62
2022/02/22 09:48:04;;;;;;;9.77;3.33;;;12.60;99.50;;;12.84;49.88;101488.72;4919746;28;98251;-61
2022/02/22 09:50:33;;;;;;;15.73;5.80;;;12.50;99.90;;;12.75;50.10;101488.09;4908184;28;98161;-63
2022/02/22 09:52:59;;;;;;;14.87;5.90;;;12.40;99.80;;;12.72;50.20;101489.94;4916969;28;96990;-62
2022/02/22 09:55:26;;;;;;;13.13;6.13;;;12.40;99.90;;;12.87;50.01;101480.66;4908134;28;98316;-60
2022/02/22 09:57:54;;;;;;;11.23;4.87;;;12.50;99.90;;;12.73;50.32;101476.69;4919103;28;97835;-63
2022/02/22 10:00:31;;;;;;;15.57;6.13;;;12.40;99.90;;;12.73;50.14;101463.47;4916843;28;97848;-60
2022/02/22 10:02:57;;;;;;;14.77;6.90;;;12.40;99.90;;;12.73;50.68;101468.75;4922096;28;99156;-62